sensor_id;sensor_type;location;lat;lon;timestamp;pressure;altitude;pressure_sealevel;temperature;humidity
6853;BME280;3465;42.144;24.722;2023-04-05T00:00:25;144457.66;;;6.15;100.00
6853;BME280;3465;42.144;24.722;2023-04-05T00:02:50;144468.84;;;6.19;100.00
6853;BME280;3465;42.144;24.722;2023-04-05T00:05:17;144458.84;;;6.15;100.00
6853;BME280;3465;42.144;24.722;2023-04-05T00:07:57;144450.16;;;6.12;100.00
6853;BME280;3465;42.144;24.722;2023-04-05T00:10:25;144452.66;;;6.13;100.00
6853;BME280;3465;42.144;24.722;2023-04-05T00:12:51;144457.66;;;6.15;100.00
6853;BME280;3465;42.144;24.722;2023-04-05T00:15:17;144447.63;;;6.11;100.00
6853;BME280;3465;42.144;24.722;2023-04-05T00:17:43;144457.66;;;6.15;100.00
6853;BME280;3465;42.144;24.722;2023-04-05T00:20:09;144389.03;;;5.87;100.00
6853;BME280;3465;42.144;24.722;2023-04-05T00:22:36;144417.72;;;5.99;100.00
6853;BME280;3465;42.144;24.722;2023-04-05T00:25:05;144426.47;;;6.02;100.00
6853;BME280;3465;42.144;24.722;2023-04-05T00:27:30;144390.31;;;5.88;100.00
6853;BME280;3465;42.144;24.722;2023-04-05T00:29:56;144431.41;;;6.04;100.00
6853;BME280;3465;42.144;24.722;2023-04-05T00:32:21;144423.94;;;6.01;100.00
6853;BME280;3465;42.144;24.722;2023-04-05T00:34:48;144418.94;;;5.99;100.00
6853;BME280;3465;42.144;24.722;2023-04-05T00:37:14;144436.41;;;6.06;100.00
6853;BME280;3465;42.144;24.722;2023-04-05T00:39:39;144435.16;;;6.06;100.00
6853;BME280;3465;42.144;24.722;2023-04-05T00:42:05;144357.81;;;5.74;100.00
6853;BME280;3465;42.144;24.722;2023-04-05T00:44:31;144428.94;;;6.03;100.00
6853;BME280;3465;42.144;24.722;2023-04-05T00:47:03;144427.69;;;6.03;100.00
6853;BME280;3465;42.144;24.722;2023-04-05T00:49:31;144369.03;;;5.79;100.00
6853;BME280;3465;42.144;24.722;2023-04-05T00:51:57;144416.47;;;5.98;100.00
6853;BME280;3465;42.144;24.722;2023-04-05T00:54:23;144416.47;;;5.98;100.00
6853;BME280;3465;42.144;24.722;2023-04-05T00:56:50;144418.94;;;5.99;100.00
6853;BME280;3465;42.144;24.722;2023-04-05T00:59:18;144422.69;;;6.01;100.00
6853;BME280;3465;42.144;24.722;2023-04-05T01:01:43;144374.03;;;5.81;100.00
6853;BME280;3465;42.144;24.722;2023-04-05T01:04:21;144406.53;;;5.94;100.00
6853;BME280;3465;42.144;24.722;2023-04-05T01:09:39;144404.00;;;5.93;100.00
6853;BME280;3465;42.144;24.722;2023-04-05T01:12:08;144414.00;;;5.97;100.00
6853;BME280;3465;42.144;24.722;2023-04-05T01:15:03;144394.03;;;5.89;100.00
6853;BME280;3465;42.144;24.722;2023-04-05T01:17:29;144418.94;;;5.99;100.00
6853;BME280;3465;42.144;24.722;2023-04-05T01:20:05;144423.94;;;6.01;100.00
6853;BME280;3465;42.144;24.722;2023-04-05T01:31:07;144395.25;;;5.90;100.00
6853;BME280;3465;42.144;24.722;2023-04-05T01:33:49;144396.53;;;5.90;100.00
6853;BME280;3465;42.144;24.722;2023-04-05T01:36:38;144350.34;;;5.71;100.00
6853;BME280;3465;42.144;24.722;2023-04-05T01:39:07;144394.03;;;5.89;100.00
6853;BME280;3465;42.144;24.722;2023-04-05T01:41:33;144380.31;;;5.83;100.00
6853;BME280;3465;42.144;24.722;2023-04-05T01:43:59;144341.63;;;5.68;100.00
6853;BME280;3465;42.144;24.722;2023-04-05T01:46:24;144347.84;;;5.70;100.00
6853;BME280;3465;42.144;24.722;2023-04-05T01:48:50;144299.19;;;5.51;100.00
6853;BME280;3465;42.144;24.722;2023-04-05T01:51:15;144345.34;;;5.69;100.00
6853;BME280;3465;42.144;24.722;2023-04-05T01:53:41;144372.78;;;5.80;100.00
6853;BME280;3465;42.144;24.722;2023-04-05T01:56:06;144355.31;;;5.73;100.00
6853;BME280;3465;42.144;24.722;2023-04-05T01:58:31;144296.72;;;5.50;100.00
6853;BME280;3465;42.144;24.722;2023-04-05T02:00:57;144356.56;;;5.74;100.00
6853;BME280;3465;42.144;24.722;2023-04-05T02:03:23;144346.63;;;5.70;100.00
6853;BME280;3465;42.144;24.722;2023-04-05T02:05:48;144350.34;;;5.71;100.00
6853;BME280;3465;42.144;24.722;2023-04-05T02:08:14;144344.09;;;5.69;100.00
6853;BME280;3465;42.144;24.722;2023-04-05T02:10:40;144340.34;;;5.67;100.00
6853;BME280;3465;42.144;24.722;2023-04-05T02:13:05;144311.69;;;5.56;100.00
6853;BME280;3465;42.144;24.722;2023-04-05T02:15:31;144325.41;;;5.61;100.00
6853;BME280;3465;42.144;24.722;2023-04-05T02:17:59;144331.63;;;5.64;100.00
6853;BME280;3465;42.144;24.722;2023-04-05T02:20:28;144321.66;;;5.60;100.00
6853;BME280;3465;42.144;24.722;2023-04-05T02:22:54;144326.66;;;5.62;100.00
6853;BME280;3465;42.144;24.722;2023-04-05T02:25:20;144296.72;;;5.50;100.00
6853;BME280;3465;42.144;24.722;2023-04-05T02:27:46;144299.19;;;5.51;100.00
6853;BME280;3465;42.144;24.722;2023-04-05T02:30:12;144290.50;;;5.47;100.00
6853;BME280;3465;42.144;24.722;2023-04-05T02:32:38;144211.97;;;5.16;100.00
6853;BME280;3465;42.144;24.722;2023-04-05T02:35:07;144309.19;;;5.55;100.00
6853;BME280;3465;42.144;24.722;2023-04-05T02:37:32;144284.25;;;5.45;100.00
6853;BME280;3465;42.144;24.722;2023-04-05T02:39:58;144278.03;;;5.42;100.00
6853;BME280;3465;42.144;24.722;2023-04-05T02:42:23;144281.78;;;5.44;100.00
6853;BME280;3465;42.144;24.722;2023-04-05T02:44:49;144274.31;;;5.41;100.00
6853;BME280;3465;42.144;24.722;2023-04-05T02:47:15;144284.25;;;5.45;100.00
6853;BME280;3465;42.144;24.722;2023-04-05T02:49:46;144278.03;;;5.42;100.00
6853;BME280;3465;42.144;24.722;2023-04-05T02:52:11;144296.72;;;5.50;100.00
6853;BME280;3465;42.144;24.722;2023-04-05T02:54:37;144131.00;;;4.83;100.00
6853;BME280;3465;42.144;24.722;2023-04-05T02:57:02;144304.19;;;5.53;100.00
6853;BME280;3465;42.144;24.722;2023-04-05T02:59:27;144283.00;;;5.44;100.00
6853;BME280;3465;42.144;24.722;2023-04-05T03:01:53;144298.00;;;5.50;100.00
6853;BME280;3465;42.144;24.722;2023-04-05T03:04:18;144275.53;;;5.41;100.00
6853;BME280;3465;42.144;24.722;2023-04-05T03:06:44;144296.72;;;5.50;100.00
6853;BME280;3465;42.144;24.722;2023-04-05T03:09:13;144244.38;;;5.29;100.00
6853;BME280;3465;42.144;24.722;2023-04-05T03:11:38;144275.53;;;5.41;100.00
6853;BME280;3465;42.144;24.722;2023-04-05T03:14:04;144276.78;;;5.42;100.00
6853;BME280;3465;42.144;24.722;2023-04-05T03:16:29;144265.56;;;5.37;100.00
6853;BME280;3465;42.144;24.722;2023-04-05T03:18:55;144266.84;;;5.38;100.00
6853;BME280;3465;42.144;24.722;2023-04-05T03:21:21;144259.31;;;5.35;100.00
6853;BME280;3465;42.144;24.722;2023-04-05T03:23:47;144266.84;;;5.38;100.00
6853;BME280;3465;42.144;24.722;2023-04-05T03:26:12;144270.56;;;5.39;100.00
6853;BME280;3465;42.144;24.722;2023-04-05T03:28:39;144274.31;;;5.41;100.00
6853;BME280;3465;42.144;24.722;2023-04-05T03:31:09;144278.03;;;5.42;100.00
6853;BME280;3465;42.144;24.722;2023-04-05T03:33:34;144248.09;;;5.30;100.00
6853;BME280;3465;42.144;24.722;2023-04-05T03:36:00;144265.56;;;5.37;100.00
6853;BME280;3465;42.144;24.722;2023-04-05T03:38:25;144254.38;;;5.33;100.00
6853;BME280;3465;42.144;24.722;2023-04-05T03:40:52;144239.38;;;5.27;100.00
6853;BME280;3465;42.144;24.722;2023-04-05T03:43:18;144255.59;;;5.33;100.00
6853;BME280;3465;42.144;24.722;2023-04-05T03:45:43;144274.31;;;5.41;100.00
6853;BME280;3465;42.144;24.722;2023-04-05T03:48:09;144273.03;;;5.40;100.00
6853;BME280;3465;42.144;24.722;2023-04-05T03:50:34;144269.31;;;5.39;100.00
6853;BME280;3465;42.144;24.722;2023-04-05T03:53:00;144264.31;;;5.37;100.00
6853;BME280;3465;42.144;24.722;2023-04-05T03:55:25;144269.31;;;5.39;100.00
6853;BME280;3465;42.144;24.722;2023-04-05T03:57:51;144261.84;;;5.36;100.00
6853;BME280;3465;42.144;24.722;2023-04-05T04:00:18;144235.63;;;5.25;100.00
6853;BME280;3465;42.144;24.722;2023-04-05T04:02:46;144225.69;;;5.21;100.00
6853;BME280;3465;42.144;24.722;2023-04-05T04:05:12;144251.84;;;5.32;100.00
6853;BME280;3465;42.144;24.722;2023-04-05T04:07:38;144261.84;;;5.36;100.00
6853;BME280;3465;42.144;24.722;2023-04-05T04:10:04;144264.31;;;5.37;100.00
6853;BME280;3465;42.144;24.722;2023-04-05T04:12:30;144253.09;;;5.32;100.00
6853;BME280;3465;42.144;24.722;2023-04-05T04:14:55;144264.31;;;5.37;100.00
6853;BME280;3465;42.144;24.722;2023-04-05T04:17:28;144263.06;;;5.36;100.00
6853;BME280;3465;42.144;24.722;2023-04-05T04:19:55;144283.00;;;5.44;100.00
6853;BME280;3465;42.144;24.722;2023-04-05T04:22:20;144283.00;;;5.44;100.00
6853;BME280;3465;42.144;24.722;2023-04-05T04:24:46;144241.91;;;5.28;100.00
6853;BME280;3465;42.144;24.722;2023-04-05T04:27:17;144278.03;;;5.42;100.00
6853;BME280;3465;42.144;24.722;2023-04-05T04:29:44;144270.56;;;5.39;100.00
6853;BME280;3465;42.144;24.722;2023-04-05T04:32:15;144290.50;;;5.47;100.00
6853;BME280;3465;42.144;24.722;2023-04-05T04:34:41;144279.25;;;5.43;100.00
6853;BME280;3465;42.144;24.722;2023-04-05T04:37:12;144286.78;;;5.46;100.00
6853;BME280;3465;42.144;24.722;2023-04-05T04:39:45;144289.25;;;5.47;100.00
6853;BME280;3465;42.144;24.722;2023-04-05T04:42:11;144261.84;;;5.36;100.00
6853;BME280;3465;42.144;24.722;2023-04-05T04:44:37;144306.72;;;5.54;100.00
6853;BME280;3465;42.144;24.722;2023-04-05T04:47:03;144306.72;;;5.54;100.00
6853;BME280;3465;42.144;24.722;2023-04-05T04:49:37;144306.72;;;5.54;100.00
6853;BME280;3465;42.144;24.722;2023-04-05T04:52:03;144331.63;;;5.64;100.00
6853;BME280;3465;42.144;24.722;2023-04-05T04:54:29;144306.72;;;5.54;100.00
6853;BME280;3465;42.144;24.722;2023-04-05T04:56:54;144235.63;;;5.25;100.00
6853;BME280;3465;42.144;24.722;2023-04-05T04:59:21;144392.78;;;5.89;100.00
6853;BME280;3465;42.144;24.722;2023-04-05T05:01:46;144426.47;;;6.02;100.00
6853;BME280;3465;42.144;24.722;2023-04-05T05:04:12;144441.44;;;6.08;100.00
6853;BME280;3465;42.144;24.722;2023-04-05T05:06:37;144623.56;;;6.81;100.00
6853;BME280;3465;42.144;24.722;2023-04-05T05:09:03;144715.94;;;7.18;100.00
6853;BME280;3465;42.144;24.722;2023-04-05T05:11:28;144677.25;;;7.03;100.00
6853;BME280;3465;42.144;24.722;2023-04-05T05:13:53;144614.81;;;6.78;100.00
6853;BME280;3465;42.144;24.722;2023-04-05T05:16:19;144516.25;;;6.38;100.00
6853;BME280;3465;42.144;24.722;2023-04-05T05:18:47;144512.53;;;6.37;100.00
6853;BME280;3465;42.144;24.722;2023-04-05T05:21:14;144532.47;;;6.45;100.00
6853;BME280;3465;42.144;24.722;2023-04-05T05:23:39;144572.41;;;6.61;100.00
6853;BME280;3465;42.144;24.722;2023-04-05T05:26:05;144478.81;;;6.23;100.00
6853;BME280;3465;42.144;24.722;2023-04-05T05:28:31;144563.66;;;6.57;100.00
6853;BME280;3465;42.144;24.722;2023-04-05T05:30:56;144609.88;;;6.76;100.00
6853;BME280;3465;42.144;24.722;2023-04-05T05:33:21;144559.91;;;6.56;100.00
6853;BME280;3465;42.144;24.722;2023-04-05T05:35:48;144518.75;;;6.39;100.00
6853;BME280;3465;42.144;24.722;2023-04-05T05:38:14;144553.69;;;6.53;100.00
6853;BME280;3465;42.144;24.722;2023-04-05T05:40:39;144541.22;;;6.48;100.00
6853;BME280;3465;42.144;24.722;2023-04-05T05:43:05;144492.56;;;6.29;100.00
6853;BME280;3465;42.144;24.722;2023-04-05T05:45:30;144553.69;;;6.53;100.00
6853;BME280;3465;42.144;24.722;2023-04-05T05:47:56;144544.97;;;6.50;100.00
6853;BME280;3465;42.144;24.722;2023-04-05T05:50:22;144521.25;;;6.40;100.00
6853;BME280;3465;42.144;24.722;2023-04-05T05:52:47;144563.66;;;6.57;100.00
6853;BME280;3465;42.144;24.722;2023-04-05T05:55:13;144566.19;;;6.58;100.00
6853;BME280;3465;42.144;24.722;2023-04-05T05:57:38;144549.97;;;6.52;100.00
6853;BME280;3465;42.144;24.722;2023-04-05T06:00:04;144531.22;;;6.44;100.00
6853;BME280;3465;42.144;24.722;2023-04-05T06:02:33;144543.69;;;6.49;100.00
6853;BME280;3465;42.144;24.722;2023-04-05T06:04:59;144534.97;;;6.46;100.00
6853;BME280;3465;42.144;24.722;2023-04-05T06:07:27;144584.88;;;6.66;100.00
6853;BME280;3465;42.144;24.722;2023-04-05T06:09:53;144556.19;;;6.54;100.00
6853;BME280;3465;42.144;24.722;2023-04-05T06:12:21;144526.25;;;6.42;100.00
6853;BME280;3465;42.144;24.722;2023-04-05T06:14:46;144551.19;;;6.52;100.00
6853;BME280;3465;42.144;24.722;2023-04-05T06:17:12;144551.19;;;6.52;100.00
6853;BME280;3465;42.144;24.722;2023-04-05T06:19:37;144613.59;;;6.77;100.00
6853;BME280;3465;42.144;24.722;2023-04-05T06:22:02;144608.59;;;6.75;100.00
6853;BME280;3465;42.144;24.722;2023-04-05T06:24:28;144586.16;;;6.66;100.00
6853;BME280;3465;42.144;24.722;2023-04-05T06:26:56;144657.28;;;6.95;100.00
6853;BME280;3465;42.144;24.722;2023-04-05T06:29:22;144669.78;;;7.00;100.00
6853;BME280;3465;42.144;24.722;2023-04-05T06:31:47;144713.47;;;7.17;100.00
6853;BME280;3465;42.144;24.722;2023-04-05T06:34:13;144681.00;;;7.04;100.00
6853;BME280;3465;42.144;24.722;2023-04-05T06:36:38;144738.41;;;7.27;100.00
6853;BME280;3465;42.144;24.722;2023-04-05T06:39:04;144775.88;;;7.43;100.00
6853;BME280;3465;42.144;24.722;2023-04-05T06:41:29;144778.34;;;7.44;100.00
6853;BME280;3465;42.144;24.722;2023-04-05T06:43:55;144752.16;;;7.33;100.00
6853;BME280;3465;42.144;24.722;2023-04-05T06:46:21;144742.13;;;7.29;100.00
6853;BME280;3465;42.144;24.722;2023-04-05T06:48:46;144803.34;;;7.54;100.00
6853;BME280;3465;42.144;24.722;2023-04-05T06:51:12;144797.13;;;7.51;99.36
6853;BME280;3465;42.144;24.722;2023-04-05T06:53:38;144787.09;;;7.47;100.00
6853;BME280;3465;42.144;24.722;2023-04-05T06:56:03;144601.13;;;6.72;99.54
6853;BME280;3465;42.144;24.722;2023-04-05T06:58:29;144752.16;;;7.33;100.00
6853;BME280;3465;42.144;24.722;2023-04-05T07:00:55;144687.22;;;7.07;100.00
6853;BME280;3465;42.144;24.722;2023-04-05T07:03:20;144758.38;;;7.36;100.00
6853;BME280;3465;42.144;24.722;2023-04-05T07:05:57;144760.91;;;7.37;100.00
6853;BME280;3465;42.144;24.722;2023-04-05T07:08:28;144767.13;;;7.39;100.00
6853;BME280;3465;42.144;24.722;2023-04-05T07:10:53;144754.63;;;7.34;100.00
6853;BME280;3465;42.144;24.722;2023-04-05T07:13:21;144754.63;;;7.34;100.00
6853;BME280;3465;42.144;24.722;2023-04-05T07:15:47;144800.88;;;7.53;100.00
6853;BME280;3465;42.144;24.722;2023-04-05T07:18:12;144805.88;;;7.55;99.61
6853;BME280;3465;42.144;24.722;2023-04-05T07:20:41;144805.88;;;7.55;97.33
6853;BME280;3465;42.144;24.722;2023-04-05T07:23:07;144798.34;;;7.52;98.59
6853;BME280;3465;42.144;24.722;2023-04-05T07:25:32;144743.41;;;7.29;98.78
6853;BME280;3465;42.144;24.722;2023-04-05T07:27:58;144824.59;;;7.62;98.94
6853;BME280;3465;42.144;24.722;2023-04-05T07:30:25;144747.16;;;7.31;98.57
6853;BME280;3465;42.144;24.722;2023-04-05T07:32:50;144810.84;;;7.57;100.00
6853;BME280;3465;42.144;24.722;2023-04-05T07:35:16;144838.31;;;7.68;99.64
6853;BME280;3465;42.144;24.722;2023-04-05T07:37:41;144843.31;;;7.70;100.00
6853;BME280;3465;42.144;24.722;2023-04-05T07:40:07;144961.97;;;8.17;100.00
6853;BME280;3465;42.144;24.722;2023-04-05T07:42:35;145010.78;;;8.37;96.55
6853;BME280;3465;42.144;24.722;2023-04-05T07:45:00;145065.81;;;8.59;96.29
6853;BME280;3465;42.144;24.722;2023-04-05T07:47:26;145063.28;;;8.58;93.93
6853;BME280;3465;42.144;24.722;2023-04-05T07:49:51;145075.78;;;8.63;94.38
6853;BME280;3465;42.144;24.722;2023-04-05T07:52:17;145048.28;;;8.52;93.42
6853;BME280;3465;42.144;24.722;2023-04-05T07:54:42;144958.25;;;8.16;93.63
6853;BME280;3465;42.144;24.722;2023-04-05T07:57:16;144978.28;;;8.24;95.88
6853;BME280;3465;42.144;24.722;2023-04-05T07:59:42;145039.53;;;8.48;95.45
6853;BME280;3465;42.144;24.722;2023-04-05T08:02:07;145094.53;;;8.70;95.52
6853;BME280;3465;42.144;24.722;2023-04-05T08:04:33;145135.81;;;8.87;94.57
6853;BME280;3465;42.144;24.722;2023-04-05T08:06:58;145137.06;;;8.88;91.71
6853;BME280;3465;42.144;24.722;2023-04-05T08:09:24;145230.84;;;9.25;92.03
6853;BME280;3465;42.144;24.722;2023-04-05T08:11:49;145285.91;;;9.47;88.89
6853;BME280;3465;42.144;24.722;2023-04-05T08:14:14;145335.94;;;9.67;90.26
6853;BME280;3465;42.144;24.722;2023-04-05T08:16:40;145472.41;;;10.22;89.68
6853;BME280;3465;42.144;24.722;2023-04-05T08:19:05;145608.91;;;10.77;85.21
6853;BME280;3465;42.144;24.722;2023-04-05T08:21:32;145492.44;;;10.30;82.47
6853;BME280;3465;42.144;24.722;2023-04-05T08:23:58;145419.78;;;10.01;83.78
6853;BME280;3465;42.144;24.722;2023-04-05T08:26:24;145381.00;;;9.85;84.79
6853;BME280;3465;42.144;24.722;2023-04-05T08:28:49;145407.25;;;9.96;83.87
6853;BME280;3465;42.144;24.722;2023-04-05T08:31:16;145436.09;;;10.07;82.96
6853;BME280;3465;42.144;24.722;2023-04-05T08:33:41;145474.91;;;10.23;83.18
6853;BME280;3465;42.144;24.722;2023-04-05T08:36:07;145457.41;;;10.16;81.28
6853;BME280;3465;42.144;24.722;2023-04-05T08:38:33;145367.22;;;9.80;84.16
6853;BME280;3465;42.144;24.722;2023-04-05T08:41:15;145391.00;;;9.89;83.68
6853;BME280;3465;42.144;24.722;2023-04-05T08:44:02;145353.47;;;9.74;84.38
6853;BME280;3465;42.144;24.722;2023-04-05T08:46:32;145337.19;;;9.68;85.01
6853;BME280;3465;42.144;24.722;2023-04-05T08:48:58;145315.91;;;9.59;86.29
6853;BME280;3465;42.144;24.722;2023-04-05T08:51:25;145329.69;;;9.65;84.52
6853;BME280;3465;42.144;24.722;2023-04-05T08:53:52;145378.47;;;9.84;84.50
6853;BME280;3465;42.144;24.722;2023-04-05T08:56:25;145399.75;;;9.93;83.37
6853;BME280;3465;42.144;24.722;2023-04-05T09:01:28;145474.91;;;10.23;85.39
6853;BME280;3465;42.144;24.722;2023-04-05T09:03:56;145477.44;;;10.24;83.31
6853;BME280;3465;42.144;24.722;2023-04-05T09:06:22;145508.72;;;10.37;82.81
6853;BME280;3465;42.144;24.722;2023-04-05T09:08:48;145586.38;;;10.68;81.40
6853;BME280;3465;42.144;24.722;2023-04-05T09:11:15;145530.03;;;10.45;80.31
6853;BME280;3465;42.144;24.722;2023-04-05T09:13:40;145436.09;;;10.07;80.90
6853;BME280;3465;42.144;24.722;2023-04-05T09:16:06;145355.97;;;9.75;81.48
6853;BME280;3465;42.144;24.722;2023-04-05T09:18:32;145343.44;;;9.70;81.66
6853;BME280;3465;42.144;24.722;2023-04-05T09:21:04;145339.69;;;9.69;82.27
6853;BME280;3465;42.144;24.722;2023-04-05T09:23:30;145253.38;;;9.34;84.66
6853;BME280;3465;42.144;24.722;2023-04-05T09:25:55;145262.09;;;9.38;83.87
6853;BME280;3465;42.144;24.722;2023-04-05T09:28:21;145275.88;;;9.43;84.80
6853;BME280;3465;42.144;24.722;2023-04-05T09:30:46;145255.88;;;9.35;85.63
6853;BME280;3465;42.144;24.722;2023-04-05T09:33:17;145240.88;;;9.29;86.56
6853;BME280;3465;42.144;24.722;2023-04-05T09:35:43;145285.91;;;9.47;87.66
6853;BME280;3465;42.144;24.722;2023-04-05T09:38:09;145342.16;;;9.70;85.91
6853;BME280;3465;42.144;24.722;2023-04-05T09:40:48;145328.44;;;9.64;86.85
6853;BME280;3465;42.144;24.722;2023-04-05T09:43:34;145401.03;;;9.93;86.82
6853;BME280;3465;42.144;24.722;2023-04-05T09:46:00;145417.31;;;10.00;84.50
6853;BME280;3465;42.144;24.722;2023-04-05T09:48:45;145359.72;;;9.77;84.16
6853;BME280;3465;42.144;24.722;2023-04-05T09:51:13;145419.78;;;10.01;82.62
6853;BME280;3465;42.144;24.722;2023-04-05T09:53:56;145197.09;;;9.12;84.35
6853;BME280;3465;42.144;24.722;2023-04-05T09:56:23;145287.13;;;9.48;84.12
6853;BME280;3465;42.144;24.722;2023-04-05T09:58:50;145289.66;;;9.49;84.99
6853;BME280;3465;42.144;24.722;2023-04-05T10:01:16;145299.66;;;9.53;85.14
6853;BME280;3465;42.144;24.722;2023-04-05T10:03:48;145288.41;;;9.48;85.81
6853;BME280;3465;42.144;24.722;2023-04-05T10:06:17;145105.81;;;8.75;84.10
6853;BME280;3465;42.144;24.722;2023-04-05T10:08:46;145212.09;;;9.18;84.26
6853;BME280;3465;42.144;24.722;2023-04-05T10:11:11;145159.56;;;8.97;85.23
6853;BME280;3465;42.144;24.722;2023-04-05T10:13:39;145083.28;;;8.66;88.95
6853;BME280;3465;42.144;24.722;2023-04-05T10:16:09;145083.28;;;8.66;88.75
6853;BME280;3465;42.144;24.722;2023-04-05T10:18:42;145104.56;;;8.75;88.77
6853;BME280;3465;42.144;24.722;2023-04-05T10:21:10;145138.28;;;8.88;87.30
6853;BME280;3465;42.144;24.722;2023-04-05T10:23:37;145140.81;;;8.89;88.59
6853;BME280;3465;42.144;24.722;2023-04-05T10:26:33;145234.59;;;9.27;86.02
6853;BME280;3465;42.144;24.722;2023-04-05T10:29:08;145290.88;;;9.49;84.94
6853;BME280;3465;42.144;24.722;2023-04-05T10:31:44;145269.66;;;9.41;85.72
6853;BME280;3465;42.144;24.722;2023-04-05T10:34:26;145260.88;;;9.37;84.74
6853;BME280;3465;42.144;24.722;2023-04-05T10:37:00;145238.34;;;9.28;85.38
6853;BME280;3465;42.144;24.722;2023-04-05T10:39:43;145218.31;;;9.20;85.11
6853;BME280;3465;42.144;24.722;2023-04-05T10:42:27;145155.81;;;8.95;87.25
6853;BME280;3465;42.144;24.722;2023-04-05T10:45:01;145155.81;;;8.95;87.95
6853;BME280;3465;42.144;24.722;2023-04-05T10:47:31;145180.84;;;9.05;88.36
6853;BME280;3465;42.144;24.722;2023-04-05T10:50:02;145158.28;;;8.96;86.99
6853;BME280;3465;42.144;24.722;2023-04-05T10:52:29;145137.06;;;8.88;87.28
6853;BME280;3465;42.144;24.722;2023-04-05T10:54:56;145165.84;;;8.99;87.03
6853;BME280;3465;42.144;24.722;2023-04-05T10:57:24;145040.81;;;8.49;88.86
6853;BME280;3465;42.144;24.722;2023-04-05T10:59:50;145183.31;;;9.06;89.68
6853;BME280;3465;42.144;24.722;2023-04-05T11:02:17;145268.38;;;9.40;87.77
6853;BME280;3465;42.144;24.722;2023-04-05T11:04:43;145244.63;;;9.31;87.50
6853;BME280;3465;42.144;24.722;2023-04-05T11:07:20;145294.63;;;9.51;86.04
6853;BME280;3465;42.144;24.722;2023-04-05T11:10:02;145340.97;;;9.69;87.62
6853;BME280;3465;42.144;24.722;2023-04-05T11:21:07;145486.22;;;10.28;85.10
6853;BME280;3465;42.144;24.722;2023-04-05T11:26:30;145437.38;;;10.08;85.86
6853;BME280;3465;42.144;24.722;2023-04-05T11:28:59;145421.06;;;10.01;84.98
6853;BME280;3465;42.144;24.722;2023-04-05T11:31:24;145381.00;;;9.85;86.08
6853;BME280;3465;42.144;24.722;2023-04-05T11:33:55;145398.50;;;9.92;86.32
6853;BME280;3465;42.144;24.722;2023-04-05T11:36:35;145441.13;;;10.09;86.09
6853;BME280;3465;42.144;24.722;2023-04-05T11:39:24;145416.03;;;9.99;87.97
6853;BME280;3465;42.144;24.722;2023-04-05T11:44:48;145478.66;;;10.25;87.20
6853;BME280;3465;42.144;24.722;2023-04-05T11:47:16;145517.50;;;10.40;86.54
6853;BME280;3465;42.144;24.722;2023-04-05T11:49:42;145506.25;;;10.36;85.22
6853;BME280;3465;42.144;24.722;2023-04-05T11:52:17;145542.50;;;10.50;84.29
6853;BME280;3465;42.144;24.722;2023-04-05T11:54:43;145497.47;;;10.32;85.18
6853;BME280;3465;42.144;24.722;2023-04-05T11:57:20;145413.56;;;9.98;84.73
6853;BME280;3465;42.144;24.722;2023-04-05T11:59:48;145355.97;;;9.75;86.63
6853;BME280;3465;42.144;24.722;2023-04-05T12:02:14;145342.16;;;9.70;86.87
6853;BME280;3465;42.144;24.722;2023-04-05T12:04:40;145377.25;;;9.84;88.53
6853;BME280;3465;42.144;24.722;2023-04-05T12:07:12;145409.78;;;9.97;86.08
6853;BME280;3465;42.144;24.722;2023-04-05T12:10:08;145367.22;;;9.80;85.35
6853;BME280;3465;42.144;24.722;2023-04-05T12:12:39;145368.47;;;9.80;85.51
6853;BME280;3465;42.144;24.722;2023-04-05T12:15:10;145399.75;;;9.93;86.64
6853;BME280;3465;42.144;24.722;2023-04-05T12:17:48;145384.75;;;9.87;86.13
6853;BME280;3465;42.144;24.722;2023-04-05T12:20:19;145324.69;;;9.63;84.58
6853;BME280;3465;42.144;24.722;2023-04-05T12:22:46;145334.66;;;9.67;85.31
6853;BME280;3465;42.144;24.722;2023-04-05T12:25:13;145295.91;;;9.51;87.34
6853;BME280;3465;42.144;24.722;2023-04-05T12:27:39;145327.16;;;9.64;88.26
6853;BME280;3465;42.144;24.722;2023-04-05T12:32:41;145329.69;;;9.65;89.28
6853;BME280;3465;42.144;24.722;2023-04-05T12:35:14;145310.91;;;9.57;91.19
6853;BME280;3465;42.144;24.722;2023-04-05T12:37:40;145345.97;;;9.71;94.17
6853;BME280;3465;42.144;24.722;2023-04-05T12:40:06;145310.91;;;9.57;94.09
6853;BME280;3465;42.144;24.722;2023-04-05T12:42:32;145192.06;;;9.10;92.82
6853;BME280;3465;42.144;24.722;2023-04-05T12:45:09;145213.34;;;9.18;93.69
6853;BME280;3465;42.144;24.722;2023-04-05T12:47:35;145158.28;;;8.96;93.32
6853;BME280;3465;42.144;24.722;2023-04-05T12:50:14;145198.31;;;9.12;92.45
6853;BME280;3465;42.144;24.722;2023-04-05T12:53:03;145202.06;;;9.14;89.03
6853;BME280;3465;42.144;24.722;2023-04-05T12:55:30;145177.09;;;9.04;91.77
6853;BME280;3465;42.144;24.722;2023-04-05T12:57:58;145143.28;;;8.90;90.56
6853;BME280;3465;42.144;24.722;2023-04-05T13:00:24;145173.34;;;9.02;88.82
6853;BME280;3465;42.144;24.722;2023-04-05T13:02:51;145170.81;;;9.01;91.17
6853;BME280;3465;42.144;24.722;2023-04-05T13:05:25;145163.31;;;8.98;94.18
6853;BME280;3465;42.144;24.722;2023-04-05T13:07:52;145145.84;;;8.91;95.06
6853;BME280;3465;42.144;24.722;2023-04-05T13:10:19;145110.78;;;8.77;95.45
6853;BME280;3465;42.144;24.722;2023-04-05T13:12:45;145110.78;;;8.77;99.43
6853;BME280;3465;42.144;24.722;2023-04-05T13:15:12;145082.03;;;8.65;96.89
6853;BME280;3465;42.144;24.722;2023-04-05T13:17:39;145170.81;;;9.01;95.65
6853;BME280;3465;42.144;24.722;2023-04-05T13:20:05;145199.56;;;9.13;96.50
6853;BME280;3465;42.144;24.722;2023-04-05T13:22:30;145157.06;;;8.96;97.27
6853;BME280;3465;42.144;24.722;2023-04-05T13:24:56;145183.31;;;9.06;98.13
6853;BME280;3465;42.144;24.722;2023-04-05T13:27:22;145218.31;;;9.20;93.83
6853;BME280;3465;42.144;24.722;2023-04-05T13:29:47;145240.88;;;9.29;95.65
6853;BME280;3465;42.144;24.722;2023-04-05T13:32:12;145178.31;;;9.04;93.10
6853;BME280;3465;42.144;24.722;2023-04-05T13:34:38;145225.88;;;9.23;92.62
6853;BME280;3465;42.144;24.722;2023-04-05T13:37:03;145235.84;;;9.27;92.76
6853;BME280;3465;42.144;24.722;2023-04-05T13:39:29;145267.13;;;9.40;90.60